Time;durP1;ratioP1;P1;durP2;ratioP2;P2;SDS_P1;SDS_P2;PMS_P1;PMS_P2;Temp;Humidity;BMP_temperature;BMP_pressure;BME280_temperature;BME280_humidity;BME280_pressure;Samples;Min_cycle;Max_cycle;Signal;HPM_P1;HPM_P2
2022/04/18 00:01:49;;;;;;;13.70;6.28;;;;;;;0.22;86.56;95825.22;5105813;28;20036;-73
2022/04/18 00:04:15;;;;;;;17.30;6.80;;;;;;;0.01;86.78;95814.00;5102364;28;20039;-73
2022/04/18 00:06:40;;;;;;;13.45;6.68;;;;;;;-0.05;87.69;95814.81;5102445;28;20036;-73
2022/04/18 00:09:06;;;;;;;13.52;5.78;;;;;;;-0.04;87.92;95816.41;5089914;28;20115;-73
2022/04/18 00:11:32;;;;;;;13.40;6.43;;;;;;;-0.03;88.61;95812.81;5071993;28;20115;-73
2022/04/18 00:13:58;;;;;;;12.45;6.68;;;;;;;0.00;88.12;95809.84;5088496;28;20051;-73
2022/04/18 00:16:24;;;;;;;12.48;6.78;;;;;;;0.04;88.38;95813.63;5088730;28;20066;-73
2022/04/18 00:18:50;;;;;;;12.38;6.80;;;;;;;-0.02;87.38;95809.22;5088747;28;20601;-73
2022/04/18 00:21:15;;;;;;;15.32;7.43;;;;;;;-0.03;88.01;95807.63;5088612;28;20134;-73
2022/04/18 00:23:42;;;;;;;16.42;7.22;;;;;;;-0.11;88.51;95805.22;5101841;28;20040;-73
2022/04/18 00:26:08;;;;;;;16.25;7.15;;;;;;;-0.14;88.18;95795.25;5096984;28;20044;-73
2022/04/18 00:28:33;;;;;;;18.33;7.75;;;;;;;-0.16;88.51;95792.88;5097232;28;20097;-73
2022/04/18 00:30:59;;;;;;;14.68;6.57;;;;;;;-0.10;87.65;95791.28;5084160;28;20107;-73
2022/04/18 00:33:25;;;;;;;16.73;8.13;;;;;;;-0.12;88.28;95788.09;5090976;28;20090;-73
2022/04/18 00:35:51;;;;;;;15.50;7.65;;;;;;;-0.17;88.86;95786.13;5088243;28;20048;-73
2022/04/18 00:38:18;;;;;;;16.20;6.85;;;;;;;-0.04;88.47;95785.34;5088151;28;20040;-73
2022/04/18 00:40:44;;;;;;;16.52;7.22;;;;;;;-0.11;88.22;95789.72;5099285;28;20044;-73
2022/04/18 00:43:09;;;;;;;13.13;7.07;;;;;;;-0.16;87.35;95792.06;5102239;28;20551;-73
2022/04/18 00:45:35;;;;;;;17.02;6.88;;;;;;;-0.30;87.28;95786.88;5108214;28;20043;-72
2022/04/18 00:48:02;;;;;;;14.20;7.40;;;;;;;-0.38;88.12;95785.22;5106489;28;20044;-72
2022/04/18 00:50:31;;;;;;;17.20;7.18;;;;;;;-0.38;88.68;95789.63;5112658;28;20097;-72
2022/04/18 00:52:58;;;;;;;16.85;7.32;;;;;;;-0.34;88.35;95783.06;5105750;28;20042;-72
2022/04/18 00:55:26;;;;;;;16.95;7.55;;;;;;;-0.32;87.88;95778.50;5095744;28;20115;-73
2022/04/18 00:57:53;;;;;;;15.82;7.13;;;;;;;-0.30;88.39;95779.09;5098457;28;20040;-72
2022/04/18 01:00:19;;;;;;;15.38;7.20;;;;;;;-0.38;87.04;95776.69;5101062;28;20044;-73
2022/04/18 01:02:45;;;;;;;14.02;6.70;;;;;;;-0.44;87.90;95780.06;5098558;28;20088;-73
2022/04/18 01:05:11;;;;;;;14.70;7.28;;;;;;;-0.40;88.05;95773.50;5098142;28;20111;-73
2022/04/18 01:07:38;;;;;;;15.25;7.15;;;;;;;-0.44;88.05;95769.72;5094300;28;20047;-73
2022/04/18 01:10:05;;;;;;;16.48;7.45;;;;;;;-0.36;88.85;95769.53;5107340;28;20048;-73
2022/04/18 01:12:30;;;;;;;15.38;7.65;;;;;;;-0.43;88.61;95771.28;5103169;28;20039;-73
2022/04/18 01:14:56;;;;;;;16.40;6.97;;;;;;;-0.38;88.43;95768.94;5097435;28;20109;-73
2022/04/18 01:17:22;;;;;;;15.60;7.28;;;;;;;-0.37;88.31;95766.16;5093174;28;20044;-73
2022/04/18 01:19:47;;;;;;;18.20;7.85;;;;;;;-0.39;88.66;95762.16;5108825;28;20149;-73
2022/04/18 01:22:13;;;;;;;19.48;8.80;;;;;;;-0.53;88.86;95761.31;5108853;28;20036;-73
2022/04/18 01:30:11;;;;;;;24.60;8.35;;;;;;;-0.73;89.53;95750.91;5109238;28;20036;-73
2022/04/18 01:32:36;;;;;;;16.38;8.07;;;;;;;-0.79;90.12;95767.16;5100668;28;20117;-73
2022/04/18 01:35:02;;;;;;;17.10;8.20;;;;;;;-0.79;89.83;95756.81;5098642;28;20058;-73
2022/04/18 01:37:28;;;;;;;23.73;8.75;;;;;;;-0.79;89.94;95749.88;5092794;28;20100;-73
2022/04/18 01:39:53;;;;;;;16.58;7.60;;;;;;;-0.73;89.67;95743.16;5101980;28;20114;-73
2022/04/18 01:42:19;;;;;;;18.67;8.57;;;;;;;-0.81;89.22;95744.09;5090599;28;20039;-73
2022/04/18 01:44:44;;;;;;;17.38;8.45;;;;;;;-0.85;89.89;95748.03;5109095;28;20044;-73
2022/04/18 01:47:10;;;;;;;17.98;8.60;;;;;;;-0.89;90.13;95750.22;5109862;28;20122;-73
2022/04/18 01:49:36;;;;;;;17.35;8.10;;;;;;;-0.83;90.06;95740.09;5091270;28;20554;-73
2022/04/18 01:52:01;;;;;;;17.15;8.32;;;;;;;-0.80;89.88;95729.41;5105512;28;20067;-73
2022/04/18 01:54:27;;;;;;;20.13;9.18;;;;;;;-0.83;90.43;95729.75;5103614;28;20525;-73
2022/04/18 01:56:52;;;;;;;21.42;8.63;;;;;;;-0.82;89.12;95731.34;5108369;28;20097;-73
2022/04/18 01:59:18;;;;;;;18.08;8.50;;;;;;;-0.93;88.83;95741.25;5105878;28;20039;-73
2022/04/18 02:01:43;;;;;;;17.42;8.73;;;;;;;-0.92;90.19;95731.72;5103516;28;20051;-73
2022/04/18 02:04:09;;;;;;;23.08;8.27;;;;;;;-0.97;90.37;95734.88;5091559;28;20039;-73
2022/04/18 02:06:34;;;;;;;23.30;7.90;;;;;;;-1.04;90.84;95728.88;5091132;28;20066;-73
2022/04/18 02:09:00;;;;;;;20.60;8.52;;;;;;;-0.97;90.49;95719.38;5091362;28;20043;-73
2022/04/18 02:11:26;;;;;;;19.85;8.55;;;;;;;-0.91;89.86;95718.59;5110143;28;20044;-73
2022/04/18 02:13:52;;;;;;;19.55;8.77;;;;;;;-1.00;88.94;95724.13;5104504;28;20048;-73
2022/04/18 02:16:19;;;;;;;15.38;8.38;;;;;;;-1.12;89.84;95721.28;5108305;28;20036;-73
2022/04/18 02:18:45;;;;;;;18.98;8.07;;;;;;;-1.18;91.58;95722.03;5103718;28;20076;-73
2022/04/18 02:21:12;;;;;;;19.70;8.30;;;;;;;-1.09;91.13;95723.50;5091620;28;20412;-73
2022/04/18 02:23:41;;;;;;;17.83;8.27;;;;;;;-1.14;90.74;95723.25;5099634;28;20046;-73
2022/04/18 02:26:07;;;;;;;19.52;9.10;;;;;;;-1.19;91.44;95712.69;5090669;28;20598;-73
2022/04/18 02:28:33;;;;;;;22.27;7.93;;;;;;;-1.17;90.94;95713.31;5097725;28;20413;-73
2022/04/18 02:30:59;;;;;;;19.17;8.13;;;;;;;-1.23;91.70;95710.50;5098463;28;20032;-73
2022/04/18 02:33:25;;;;;;;21.40;8.52;;;;;;;-1.17;90.54;95708.16;5077966;28;20043;-73
2022/04/18 02:35:50;;;;;;;14.63;7.85;;;;;;;-1.15;90.36;95695.81;5098937;28;20048;-73
2022/04/18 02:38:17;;;;;;;16.73;7.90;;;;;;;-1.16;90.14;95707.16;5109767;28;20043;-73
2022/04/18 02:40:43;;;;;;;16.35;8.05;;;;;;;-1.27;91.12;95698.16;5098423;28;20143;-73
2022/04/18 02:43:09;;;;;;;18.08;8.80;;;;;;;-1.33;91.90;95699.72;5100718;28;20044;-73
2022/04/18 02:45:35;;;;;;;22.05;8.57;;;;;;;-1.22;91.03;95695.81;5098000;28;20095;-72
2022/04/18 02:48:01;;;;;;;16.73;8.30;;;;;;;-1.15;90.61;95685.50;5104552;28;20551;-73
2022/04/18 02:50:27;;;;;;;20.30;9.05;;;;;;;-1.28;91.61;95697.38;5104452;28;20044;-73
2022/04/18 02:52:53;;;;;;;19.15;8.38;;;;;;;-1.29;90.60;95680.28;5089489;28;20039;-73
2022/04/18 02:55:19;;;;;;;17.73;8.23;;;;;;;-1.35;90.47;95686.19;5090189;28;20114;-73
2022/04/18 02:57:45;;;;;;;17.17;8.10;;;;;;;-1.45;92.01;95685.72;5088753;28;20561;-73
2022/04/18 03:00:11;;;;;;;15.75;8.68;;;;;;;-1.49;92.61;95679.38;5097149;28;20054;-73
2022/04/18 03:02:38;;;;;;;19.70;9.25;;;;;;;-1.49;92.63;95679.38;5099134;28;20486;-73
2022/04/18 03:05:05;;;;;;;17.75;9.00;;;;;;;-1.47;92.35;95677.38;5089274;28;20103;-73
2022/04/18 03:07:32;;;;;;;16.70;8.05;;;;;;;-1.47;93.08;95682.53;5103696;28;20036;-73
2022/04/18 03:09:57;;;;;;;15.30;8.18;;;;;;;-1.42;92.33;95680.19;5078061;28;20042;-73
2022/04/18 03:12:23;;;;;;;18.95;8.57;;;;;;;-1.42;92.68;95675.03;5107374;28;20039;-73
2022/04/18 03:14:49;;;;;;;17.77;8.20;;;;;;;-1.45;92.59;95667.66;5090681;28;20044;-73
2022/04/18 03:17:15;;;;;;;19.52;8.75;;;;;;;-1.45;92.20;95654.75;5090143;28;20051;-73
2022/04/18 03:19:41;;;;;;;18.80;8.10;;;;;;;-1.44;92.20;95661.50;5089817;28;20044;-73
2022/04/18 03:22:07;;;;;;;16.38;8.40;;;;;;;-1.46;91.76;95663.50;5104850;28;20381;-73
2022/04/18 03:24:33;;;;;;;20.08;7.50;;;;;;;-1.44;91.72;95651.19;5096302;28;20036;-73
2022/04/18 03:27:01;;;;;;;15.60;7.53;;;;;;;-1.50;91.68;95662.28;5093138;28;20051;-73
2022/04/18 03:29:26;;;;;;;17.73;7.72;;;;;;;-1.54;92.24;95656.69;5089525;28;20095;-73
2022/04/18 03:31:53;;;;;;;13.52;7.78;;;;;;;-1.67;92.17;95641.91;5106882;28;20040;-73
2022/04/18 03:34:19;;;;;;;18.15;7.75;;;;;;;-1.58;92.88;95651.09;5091013;28;20036;-73
2022/04/18 03:42:13;;;;;;;19.07;8.33;;;;;;;-1.57;90.81;95652.72;5106246;28;20294;-73
2022/04/18 03:44:43;;;;;;;17.30;7.68;;;;;;;-1.68;92.36;95652.41;5099774;28;20288;-73
2022/04/18 03:47:12;;;;;;;17.40;8.80;;;;;;;-1.75;92.89;95644.66;5097868;28;20036;-73
2022/04/18 03:49:39;;;;;;;17.70;8.02;;;;;;;-1.73;93.65;95647.81;5107015;28;20074;-73
2022/04/18 03:52:05;;;;;;;15.00;8.30;;;;;;;-1.74;92.97;95641.06;5088727;28;20505;-72
2022/04/18 03:54:31;;;;;;;19.58;8.38;;;;;;;-1.75;94.04;95644.66;5088400;28;20401;-72
2022/04/18 03:56:57;;;;;;;19.52;8.60;;;;;;;-1.77;92.94;95641.44;5101991;28;20088;-72
2022/04/18 03:59:22;;;;;;;20.90;8.05;;;;;;;-1.74;93.71;95641.06;5107738;28;20402;-72
2022/04/18 04:01:48;;;;;;;16.67;8.13;;;;;;;-1.79;93.84;95640.84;5101811;28;20044;-72
2022/04/18 04:04:13;;;;;;;16.45;7.72;;;;;;;-1.81;93.47;95640.22;5106992;28;20032;-72
2022/04/18 04:06:39;;;;;;;17.27;8.25;;;;;;;-1.89;93.16;95638.59;5095105;28;20039;-72
2022/04/18 04:09:05;;;;;;;16.25;8.23;;;;;;;-1.89;92.94;95642.97;5092545;28;20044;-72
2022/04/18 04:11:31;;;;;;;19.15;8.73;;;;;;;-2.01;94.42;95646.06;5091009;28;20043;-72
2022/04/18 04:13:56;;;;;;;17.77;8.40;;;;;;;-2.07;94.32;95646.78;5092490;28;20035;-72
2022/04/18 04:16:22;;;;;;;17.25;8.57;;;;;;;-2.12;95.01;95643.97;5108997;28;20066;-72
2022/04/18 04:18:49;;;;;;;18.48;9.00;;;;;;;-2.15;94.80;95641.78;5110484;28;20043;-72
2022/04/18 04:21:15;;;;;;;20.13;8.65;;;;;;;-2.12;94.50;95633.66;5111830;28;20523;-72
2022/04/18 04:23:41;;;;;;;18.85;8.82;;;;;;;-2.10;94.51;95636.84;5092762;28;20135;-72
2022/04/18 04:26:07;;;;;;;19.75;8.57;;;;;;;-1.98;94.07;95637.94;5108977;28;20043;-72
2022/04/18 04:28:34;;;;;;;20.70;8.60;;;;;;;-1.86;93.66;95638.22;5093966;28;20149;-72
2022/04/18 04:30:59;;;;;;;20.83;8.98;;;;;;;-1.86;92.66;95637.44;5092583;28;20109;-72
2022/04/18 04:33:25;;;;;;;16.38;8.23;;;;;;;-1.89;92.67;95637.81;5092364;28;20560;-72
2022/04/18 04:35:51;;;;;;;15.63;7.95;;;;;;;-1.97;92.71;95636.97;5107841;28;20040;-72
2022/04/18 04:38:16;;;;;;;17.58;9.05;;;;;;;-1.95;93.33;95623.88;5109041;28;20044;-72
2022/04/18 04:40:42;;;;;;;16.95;8.45;;;;;;;-1.88;92.74;95639.38;5106762;28;20100;-71
2022/04/18 04:43:09;;;;;;;15.38;7.85;;;;;;;-1.88;92.24;95640.19;5093715;28;20040;-71
2022/04/18 04:45:35;;;;;;;21.38;8.27;;;;;;;-1.88;92.68;95639.38;5109093;28;20484;-72
2022/04/18 04:48:01;;;;;;;13.52;7.55;;;;;;;-1.90;92.71;95636.19;5111050;28;20118;-72
2022/04/18 04:50:26;;;;;;;17.13;8.48;;;;;;;-1.87;93.35;95638.41;5113338;27;20044;-71
2022/04/18 04:52:52;;;;;;;16.35;8.77;;;;;;;-1.93;93.19;95633.00;5098481;28;20035;-71
2022/04/18 04:55:18;;;;;;;21.45;8.82;;;;;;;-1.93;93.64;95630.41;5106471;28;20047;-71
2022/04/18 04:57:44;;;;;;;16.20;7.95;;;;;;;-1.93;93.88;95632.22;5097077;28;20040;-71
2022/04/18 05:00:10;;;;;;;16.50;8.43;;;;;;;-1.88;93.84;95629.06;5093446;28;20078;-73
2022/04/18 05:02:36;;;;;;;15.40;7.90;;;;;;;-1.80;93.75;95631.50;5112647;28;20130;-72
2022/04/18 05:05:01;;;;;;;17.15;8.18;;;;;;;-1.72;93.91;95633.94;5103847;28;20138;-73
2022/04/18 05:07:27;;;;;;;16.70;7.88;;;;;;;-1.71;94.61;95635.56;5099322;28;20039;-72
2022/04/18 05:09:52;;;;;;;18.67;8.70;;;;;;;-1.62;94.68;95636.97;5097548;28;20032;-72
2022/04/18 05:12:18;;;;;;;19.05;8.77;;;;;;;-1.52;94.02;95633.25;5099145;28;20047;-72
2022/04/18 05:14:43;;;;;;;16.63;8.10;;;;;;;-1.44;93.77;95635.69;5093786;28;20447;-71
2022/04/18 05:17:09;;;;;;;17.45;8.25;;;;;;;-1.34;93.59;95630.97;5091632;28;20097;-71
2022/04/18 05:19:34;;;;;;;16.83;8.70;;;;;;;-1.30;92.69;95632.19;5074708;28;20040;-72
2022/04/18 05:22:00;;;;;;;18.13;8.45;;;;;;;-1.15;93.03;95633.84;5111249;28;20539;-72
2022/04/18 05:24:25;;;;;;;17.50;9.13;;;;;;;-1.13;93.03;95634.47;5107564;28;20420;-72
2022/04/18 05:26:51;;;;;;;14.95;8.43;;;;;;;-0.97;92.45;95634.13;5095758;28;20145;-72
2022/04/18 05:29:16;;;;;;;18.52;9.02;;;;;;;-0.90;92.88;95637.53;5104930;28;20071;-72
2022/04/18 05:31:42;;;;;;;20.85;9.32;;;;;;;-0.91;92.90;95635.91;5105494;28;20073;-72
2022/04/18 05:34:07;;;;;;;17.30;9.27;;;;;;;-0.81;92.55;95639.94;5106651;27;20439;-72
2022/04/18 05:36:33;;;;;;;17.98;9.48;;;;;;;-0.75;93.04;95639.97;5102204;28;20074;-72
2022/04/18 05:38:59;;;;;;;18.65;8.80;;;;;;;-0.75;93.85;95645.13;5108304;28;20086;-73
2022/04/18 05:41:24;;;;;;;18.77;9.05;;;;;;;-0.77;93.80;95641.94;5098951;28;20040;-72
2022/04/18 05:43:50;;;;;;;20.80;9.68;;;;;;;-0.68;93.63;95645.13;5082684;28;20048;-73
2022/04/18 05:46:16;;;;;;;18.52;9.18;;;;;;;-0.66;93.38;95638.00;5109153;27;20043;-71
2022/04/18 05:48:41;;;;;;;19.92;9.90;;;;;;;-0.61;94.27;95640.78;5101385;28;20039;-72
2022/04/18 05:51:07;;;;;;;19.20;10.23;;;;;;;-0.50;93.92;95641.19;5106605;28;20039;-72
2022/04/18 05:53:33;;;;;;;22.67;10.15;;;;;;;-0.43;94.07;95647.16;5106141;28;20112;-72
2022/04/18 05:55:59;;;;;;;20.02;9.68;;;;;;;-0.33;94.12;95652.78;5107716;28;20032;-72
2022/04/18 05:58:24;;;;;;;18.33;9.75;;;;;;;-0.30;93.83;95652.38;5094314;28;20052;-72
2022/04/18 06:00:50;;;;;;;21.67;10.95;;;;;;;-0.24;94.39;95646.41;5097878;27;20043;-72
2022/04/18 06:03:15;;;;;;;20.70;10.50;;;;;;;-0.14;93.92;95651.19;5106603;28;20031;-72
2022/04/18 06:05:41;;;;;;;22.58;10.88;;;;;;;-0.10;93.91;95652.41;5099419;28;20040;-73
2022/04/18 06:08:07;;;;;;;19.73;10.63;;;;;;;0.07;94.33;95652.81;5102697;28;20051;-73
2022/04/18 06:10:33;;;;;;;23.08;10.95;;;;;;;0.34;92.85;95652.78;5110033;28;20040;-72
2022/04/18 06:12:59;;;;;;;22.50;10.90;;;;;;;0.47;92.42;95657.16;5108522;28;20051;-74
2022/04/18 06:15:25;;;;;;;21.52;11.50;;;;;;;0.46;91.08;95656.34;5103183;28;20046;-72
2022/04/18 06:17:50;;;;;;;18.90;10.10;;;;;;;0.84;90.13;95645.28;5104640;28;20036;-72
2022/04/18 06:20:16;;;;;;;20.05;10.93;;;;;;;0.95;89.59;95645.66;5105678;28;20051;-73
2022/04/18 06:22:41;;;;;;;22.70;10.73;;;;;;;1.24;88.41;95646.16;5092133;28;20089;-73
2022/04/18 06:25:07;;;;;;;21.13;11.15;;;;;;;1.42;87.37;95646.25;5101872;28;20043;-74
2022/04/18 06:27:33;;;;;;;23.30;11.05;;;;;;;1.59;86.32;95640.56;5095695;28;20044;-74
2022/04/18 06:29:59;;;;;;;26.98;11.32;;;;;;;1.88;84.44;95636.56;5095154;28;20035;-74
2022/04/18 06:32:25;;;;;;;22.67;10.68;;;;;;;1.75;85.47;95647.06;5094146;28;20047;-74
2022/04/18 06:34:50;;;;;;;23.80;10.52;;;;;;;1.81;83.48;95647.03;5090851;28;20043;-74
2022/04/18 06:37:16;;;;;;;25.42;10.80;;;;;;;1.85;84.17;95643.00;5102004;28;20662;-74
2022/04/18 06:39:43;;;;;;;21.27;10.93;;;;;;;1.83;85.73;95639.81;5101195;28;20047;-76
2022/04/18 06:42:09;;;;;;;26.00;11.27;;;;;;;2.07;83.35;95640.84;5096449;28;20046;-74
2022/04/18 06:44:34;;;;;;;25.90;11.48;;;;;;;2.09;84.26;95635.44;5090143;28;20649;-73
2022/04/18 06:47:00;;;;;;;22.08;10.43;;;;;;;2.71;79.66;95629.47;5104825;28;20040;-73
2022/04/18 06:49:25;;;;;;;20.20;9.82;;;;;;;2.94;78.04;95629.63;5090767;28;20067;-73
2022/04/18 06:51:51;;;;;;;23.30;9.75;;;;;;;3.06;77.36;95631.47;5099360;28;20043;-73
2022/04/18 06:54:16;;;;;;;21.63;9.93;;;;;;;3.08;78.46;95629.44;5103928;27;20039;-73
2022/04/18 06:57:00;;;;;;;27.10;10.90;;;;;;;3.31;76.66;95622.78;5101633;28;20044;-75
2022/04/18 06:59:30;;;;;;;23.38;10.82;;;;;;;3.44;75.31;95627.78;5109890;27;20412;-74
2022/04/18 07:02:00;;;;;;;20.85;10.70;;;;;;;3.78;73.51;95633.34;5109260;27;20601;-73
2022/04/18 07:04:26;;;;;;;21.67;10.23;;;;;;;3.82;75.28;95634.44;5081236;28;20056;-76
2022/04/18 07:06:51;;;;;;;20.95;11.00;;;;;;;3.92;74.44;95629.53;5089160;28;20037;-74
2022/04/18 07:09:18;;;;;;;18.27;9.95;;;;;;;3.76;75.70;95635.34;5081703;28;20036;-74
2022/04/18 07:11:45;;;;;;;18.60;9.88;;;;;;;3.79;73.33;95634.91;5085094;28;20044;-71
2022/04/18 07:14:13;;;;;;;22.05;9.50;;;;;;;3.89;72.65;95635.16;5089461;28;20386;-72
2022/04/18 07:16:40;;;;;;;20.92;10.98;;;;;;;4.00;74.53;95625.78;5068780;28;20067;-71
2022/04/18 07:19:06;;;;;;;20.33;10.23;;;;;;;4.37;72.60;95630.81;5075338;28;20490;-73
2022/04/18 07:21:31;;;;;;;20.67;9.80;;;;;;;4.16;74.27;95613.91;5086013;28;20070;-74
2022/04/18 07:23:57;;;;;;;18.85;9.70;;;;;;;4.26;72.31;95629.75;5075365;28;20090;-73
2022/04/18 07:26:23;;;;;;;17.80;9.73;;;;;;;4.25;72.98;95633.41;5075209;28;20119;-73
2022/04/18 07:28:48;;;;;;;21.42;9.25;;;;;;;4.52;72.66;95627.72;5090544;28;20036;-73
2022/04/18 07:31:14;;;;;;;20.08;9.98;;;;;;;4.50;71.52;95629.78;5085420;28;20173;-74
2022/04/18 07:33:41;;;;;;;17.02;8.60;;;;;;;4.73;69.95;95630.78;5085463;28;20044;-74
2022/04/18 07:36:06;;;;;;;23.23;8.75;;;;;;;4.68;71.79;95632.25;5078145;28;20567;-75
2022/04/18 07:38:50;;;;;;;18.13;8.18;;;;;;;5.15;66.57;95627.97;5083441;28;20040;-73
2022/04/18 07:41:16;;;;;;;17.80;7.60;;;;;;;5.20;66.86;95628.03;5076374;28;20037;-72
2022/04/18 07:43:42;;;;;;;13.50;7.65;;;;;;;5.29;63.34;95621.44;5079485;28;20452;-73
2022/04/18 07:46:08;;;;;;;16.88;7.18;;;;;;;5.37;64.88;95628.91;5085847;28;20067;-73
2022/04/18 07:48:34;;;;;;;14.60;6.75;;;;;;;5.68;61.49;95634.66;5083316;28;20040;-74
2022/04/18 07:53:44;;;;;;;17.20;6.35;;;;;;;5.90;62.29;95631.38;5085140;28;20048;-73
2022/04/18 07:56:09;;;;;;;12.43;6.20;;;;;;;5.83;63.60;95636.78;5082791;28;20047;-74
2022/04/18 07:58:35;;;;;;;10.50;5.68;;;;;;;5.88;60.56;95630.84;5065551;28;20541;-73
2022/04/18 08:01:01;;;;;;;14.57;6.05;;;;;;;6.15;58.26;95638.06;5065319;28;20120;-73
2022/04/18 08:03:27;;;;;;;15.48;6.15;;;;;;;6.44;58.78;95627.50;5076725;28;20038;-73
2022/04/18 08:05:56;;;;;;;13.32;5.50;;;;;;;6.32;60.27;95631.03;5089840;28;20138;-73
2022/04/18 08:08:22;;;;;;;11.90;5.72;;;;;;;6.35;61.38;95634.97;5085569;28;20086;-74
2022/04/18 08:10:48;;;;;;;17.55;6.55;;;;;;;6.50;56.34;95629.19;5086494;28;20048;-74
2022/04/18 08:13:14;;;;;;;13.88;5.28;;;;;;;7.04;56.27;95624.13;5089369;28;20044;-73
2022/04/18 08:15:40;;;;;;;10.95;5.57;;;;;;;7.26;55.32;95631.97;5071851;28;20505;-73
2022/04/18 08:18:05;;;;;;;11.23;5.40;;;;;;;7.38;54.72;95634.44;5060974;28;20040;-74
2022/04/18 08:20:31;;;;;;;15.65;5.95;;;;;;;7.51;52.97;95622.03;5071548;28;20043;-75
2022/04/18 08:22:56;;;;;;;15.25;6.00;;;;;;;7.43;56.35;95623.25;5063583;28;20051;-73
2022/04/18 08:25:22;;;;;;;10.68;5.13;;;;;;;7.62;53.62;95623.69;5060249;28;20067;-74
2022/04/18 08:27:47;;;;;;;13.07;5.63;;;;;;;7.68;54.60;95622.72;5055148;28;20156;-74
2022/04/18 08:30:13;;;;;;;10.15;5.03;;;;;;;7.76;51.78;95609.16;5067145;28;20053;-73
2022/04/18 08:32:39;;;;;;;10.60;4.95;;;;;;;7.99;52.00;95617.75;5068656;28;20041;-74
2022/04/18 08:35:06;;;;;;;9.10;4.47;;;;;;;8.17;50.15;95618.41;5088106;28;20520;-72
2022/04/18 08:37:36;;;;;;;13.60;5.20;;;;;;;7.62;47.57;95618.47;5053105;28;20048;-71
2022/04/18 08:40:04;;;;;;;10.85;4.90;;;;;;;7.69;49.79;95621.69;5053356;28;20594;-71
2022/04/18 08:42:38;;;;;;;14.15;4.88;;;;;;;7.74;50.48;95616.50;5067520;28;20079;-71
2022/04/18 08:45:07;;;;;;;8.80;4.10;;;;;;;7.94;49.24;95620.31;5053477;28;20053;-71
2022/04/18 08:53:04;;;;;;;9.88;4.22;;;;;;;7.82;48.12;95614.47;5064949;28;20566;-73
2022/04/18 08:55:30;;;;;;;11.20;3.97;;;;;;;7.86;49.25;95623.38;5052493;28;20102;-73
2022/04/18 08:57:56;;;;;;;12.70;4.30;;;;;;;7.93;46.87;95618.72;5053854;28;20628;-72
2022/04/18 09:00:22;;;;;;;10.70;4.50;;;;;;;8.25;48.06;95620.56;5052166;28;20506;-72
2022/04/18 09:02:48;;;;;;;8.35;4.00;;;;;;;8.37;48.71;95608.06;5070961;28;20072;-73
2022/04/18 09:05:14;;;;;;;11.75;4.50;;;;;;;8.26;46.14;95607.22;5064540;28;20412;-73
2022/04/18 09:07:58;;;;;;;11.88;4.53;;;;;;;8.21;47.24;95611.63;5062509;28;20517;-73
2022/04/18 09:10:24;;;;;;;;;;;;;;;8.56;46.46;95610.28;5063905;28;20049;-73
2022/04/18 09:12:51;;;;;;;9.30;4.47;;;;;;;8.80;45.52;95615.94;5070688;28;19932;-73
2022/04/18 09:15:49;;;;;;;17.67;4.45;;;;;;;8.59;46.29;95615.03;5055303;28;20040;-73
2022/04/18 09:18:17;;;;;;;13.63;4.45;;;;;;;8.66;45.39;95610.34;5054799;28;20052;-73
2022/04/18 09:20:54;;;;;;;11.75;4.38;;;;;;;8.58;45.59;95613.47;5083740;28;20047;-73
2022/04/18 09:23:34;;;;;;;12.30;4.68;;;;;;;8.59;46.67;95609.78;5066515;28;20037;-72
2022/04/18 09:26:08;;;;;;;12.82;5.25;;;;;;;8.59;44.95;95600.09;5068746;28;20111;-73
2022/04/18 09:28:35;;;;;;;10.95;4.38;;;;;;;8.74;45.93;95596.75;5061113;28;20045;-72
2022/04/18 09:31:06;;;;;;;9.63;4.07;;;;;;;8.74;46.72;95596.75;5069890;28;20040;-71
2022/04/18 09:33:40;;;;;;;7.65;4.13;;;;;;;8.93;46.79;95593.69;5068804;28;20040;-73
2022/04/18 09:36:12;;;;;;;14.30;4.88;;;;;;;8.84;44.77;95586.31;5067796;28;20498;-71
2022/04/18 09:38:40;;;;;;;15.13;4.60;;;;;;;9.02;45.40;95579.03;5068354;28;20040;-73
2022/04/18 09:41:07;;;;;;;11.52;4.55;;;;;;;8.88;43.10;95577.91;5078426;28;20068;-69
2022/04/18 09:43:43;;;;;;;9.05;4.63;;;;;;;9.08;45.39;95578.00;5070127;28;20040;-70
2022/04/18 09:46:09;;;;;;;9.35;4.78;;;;;;;9.37;45.12;95582.81;5056013;28;20079;-72
2022/04/18 09:48:36;;;;;;;10.20;4.63;;;;;;;9.40;44.41;95574.41;5071867;28;20413;-71
2022/04/18 09:51:16;;;;;;;10.93;5.00;;;;;;;9.42;43.57;95577.56;5071570;28;20052;-71
2022/04/18 09:53:46;;;;;;;10.52;4.47;;;;;;;9.37;43.33;95577.56;5068974;28;20033;-71
2022/04/18 09:56:16;;;;;;;12.38;4.53;;;;;;;9.51;43.54;95578.63;5066059;28;20094;-71
2022/04/18 09:58:42;;;;;;;11.98;4.82;;;;;;;9.70;42.62;95572.88;5068814;28;20037;-74
2022/04/18 10:01:09;;;;;;;9.48;4.30;;;;;;;9.94;43.17;95574.97;5073295;28;20044;-72
2022/04/18 10:03:37;;;;;;;14.05;5.53;;;;;;;10.09;42.46;95571.56;5069489;28;20190;-72
2022/04/18 10:06:04;;;;;;;11.77;4.85;;;;;;;9.95;43.17;95576.56;5065436;28;20494;-71
2022/04/18 10:08:31;;;;;;;12.32;4.95;;;;;;;10.14;42.49;95564.47;5068784;28;20043;-72
2022/04/18 10:10:58;;;;;;;10.35;5.55;;;;;;;10.33;43.39;95566.53;5068897;28;20115;-71
2022/04/18 10:13:25;;;;;;;13.73;6.35;;;;;;;10.50;42.27;95566.25;5067854;28;20043;-72
2022/04/18 10:15:54;;;;;;;11.35;5.00;;;;;;;10.89;43.21;95579.59;5067149;28;20040;-72
2022/04/18 10:18:20;;;;;;;11.27;5.38;;;;;;;10.96;41.16;95567.97;5087958;28;20047;-72
2022/04/18 10:21:06;;;;;;;11.70;5.40;;;;;;;11.16;40.05;95557.34;5067360;28;20043;-72
2022/04/18 10:23:44;;;;;;;11.50;5.10;;;;;;;11.99;40.84;95556.81;5069341;28;20130;-72
2022/04/18 10:26:47;;;;;;;9.20;5.03;;;;;;;11.56;38.31;95560.00;5067644;28;20039;-73
2022/04/18 10:29:25;;;;;;;7.95;4.63;;;;;;;12.65;40.16;95552.75;5070537;28;20052;-72
2022/04/18 10:31:53;;;;;;;9.60;4.80;;;;;;;13.49;37.54;95554.13;5058440;28;20052;-73
2022/04/18 10:34:23;;;;;;;10.50;4.93;;;;;;;13.56;36.19;95549.28;5084786;28;20506;-72
2022/04/18 10:36:52;;;;;;;11.35;5.63;;;;;;;13.51;35.83;95544.81;5065208;28;20101;-72
2022/04/18 10:39:19;;;;;;;9.95;4.70;;;;;;;13.20;34.95;95547.06;5074951;28;20090;-73
2022/04/18 10:41:49;;;;;;;10.38;4.93;;;;;;;13.58;34.29;95547.09;5085415;28;20516;-72
2022/04/18 10:44:17;;;;;;;10.13;4.57;;;;;;;13.37;34.08;95540.53;5072912;28;20045;-73
2022/04/18 10:47:03;;;;;;;10.82;5.03;;;;;;;13.25;35.07;95528.50;5071406;28;20039;-74
2022/04/18 10:49:31;;;;;;;12.35;4.95;;;;;;;13.04;34.60;95529.84;5080923;28;20040;-72
2022/04/18 10:52:07;;;;;;;9.55;4.95;;;;;;;13.86;35.19;95531.34;5064504;28;20048;-73
2022/04/18 10:54:33;;;;;;;11.50;4.97;;;;;;;13.57;34.70;95534.97;5069249;28;20494;-73
2022/04/18 10:57:11;;;;;;;10.45;4.82;;;;;;;14.05;31.46;95518.09;5064028;28;20048;-72
2022/04/18 10:59:42;;;;;;;11.75;5.03;;;;;;;13.68;33.48;95531.09;5073054;28;20037;-74
2022/04/18 11:02:29;;;;;;;12.00;5.20;;;;;;;14.04;32.35;95522.56;5072489;28;20036;-73
2022/04/18 11:04:54;;;;;;;10.93;4.82;;;;;;;13.59;34.15;95526.72;5050999;28;20048;-73
2022/04/18 11:07:37;;;;;;;12.90;5.25;;;;;;;13.76;33.07;95521.69;5050821;28;20049;-74
2022/04/18 11:10:18;;;;;;;10.23;4.57;;;;;;;15.10;32.71;95516.66;5070322;28;20032;-75
2022/04/18 11:12:44;;;;;;;14.52;5.70;;;;;;;14.90;33.43;95521.28;5079614;28;20453;-75
2022/04/18 11:15:09;;;;;;;8.93;4.72;;;;;;;15.09;30.83;95512.41;5072661;28;20036;-74
2022/04/18 11:17:40;;;;;;;9.60;4.95;;;;;;;14.73;31.21;95516.59;5060137;28;20064;-75
2022/04/18 11:20:24;;;;;;;9.65;5.03;;;;;;;14.95;31.19;95517.72;5049281;28;20049;-75
2022/04/18 11:23:21;;;;;;;12.95;5.45;;;;;;;15.09;31.94;95511.66;5066868;28;20032;-74
2022/04/18 11:25:57;;;;;;;9.52;5.00;;;;;;;15.52;30.51;95508.56;5068580;28;20036;-74
2022/04/18 11:28:26;;;;;;;10.52;5.00;;;;;;;15.15;29.94;95510.44;5071504;28;20040;-76
2022/04/18 11:30:52;;;;;;;11.27;5.20;;;;;;;15.03;31.35;95505.66;5070437;28;20048;-72
2022/04/18 11:33:17;;;;;;;11.15;5.28;;;;;;;15.42;30.03;95499.75;5083469;28;20384;-74
2022/04/18 11:35:43;;;;;;;11.23;5.28;;;;;;;15.47;31.12;95495.44;5061414;28;20062;-75
2022/04/18 11:38:10;;;;;;;12.98;5.63;;;;;;;14.37;31.20;95498.69;5068665;28;20090;-74
2022/04/18 11:40:41;;;;;;;11.43;5.20;;;;;;;15.58;29.66;95507.38;5081878;28;20048;-74
2022/04/18 11:43:15;;;;;;;13.52;4.82;;;;;;;15.51;29.67;95480.47;5070744;28;20063;-75
2022/04/18 11:45:41;;;;;;;15.02;5.25;;;;;;;16.16;30.41;95484.50;5067173;28;20094;-72
2022/04/18 11:48:07;;;;;;;13.20;5.25;;;;;;;15.97;29.93;95482.03;5084446;28;20040;-75
2022/04/18 11:50:37;;;;;;;7.75;4.50;;;;;;;15.96;29.87;95488.47;5090046;28;20786;-75